Time;durP1;ratioP1;P1;durP2;ratioP2;P2;SDS_P1;SDS_P2;PMS_P1;PMS_P2;Temp;Humidity;BMP_temperature;BMP_pressure;BME280_temperature;BME280_humidity;BME280_pressure;Samples;Min_cycle;Max_cycle;Signal;HPM_P1;HPM_P2
2022/04/27 00:00:13;;;;;;;6.78;5.03;;;;;;;13.87;84.53;99427.41;4992162;28;20018;-73
2022/04/27 00:02:38;;;;;;;4.50;4.05;;;;;;;14.29;84.12;99423.31;4992326;28;20470;-73
2022/04/27 00:05:04;;;;;;;6.72;3.83;;;;;;;14.44;81.41;99427.31;4974481;28;20033;-73
2022/04/27 00:07:30;;;;;;;4.72;4.28;;;;;;;14.53;81.05;99429.94;4974680;28;20034;-73
2022/04/27 00:09:55;;;;;;;4.72;4.20;;;;;;;14.77;80.08;99416.88;4990780;28;20027;-73
2022/04/27 00:12:21;;;;;;;6.95;3.72;;;;;;;15.04;78.32;99424.75;4991887;28;20520;-73
2022/04/27 00:14:47;;;;;;;5.28;3.05;;;;;;;14.53;78.60;99418.69;5011541;28;20109;-73
2022/04/27 00:17:12;;;;;;;6.97;3.20;;;;;;;13.94;81.43;99414.72;5007657;28;20032;-73
2022/04/27 00:19:38;;;;;;;8.45;3.65;;;;;;;14.23;81.18;99415.50;4990783;28;20034;-73
2022/04/27 00:22:03;;;;;;;6.40;3.55;;;;;;;14.09;80.72;99415.94;5007870;28;20022;-73
2022/04/27 00:24:29;;;;;;;3.80;3.50;;;;;;;14.03;81.20;99412.56;5004171;28;20121;-73
2022/04/27 00:26:54;;;;;;;3.53;3.22;;;;;;;14.23;81.23;99418.31;4973044;28;20109;-73
2022/04/27 00:29:20;;;;;;;5.88;3.55;;;;;;;14.31;79.82;99418.16;4973167;28;20120;-73
2022/04/27 00:31:46;;;;;;;6.60;3.35;;;;;;;14.04;80.55;99405.78;4990730;28;20022;-72
2022/04/27 00:34:12;;;;;;;3.92;3.42;;;;;;;14.04;80.96;99414.22;4990758;28;20825;-73
2022/04/27 00:36:37;;;;;;;5.75;3.83;;;;;;;13.95;80.15;99410.75;4990304;28;20077;-72
2022/04/27 00:39:03;;;;;;;5.25;4.28;;;;;;;13.41;82.43;99407.19;4990806;28;20030;-73
2022/04/27 00:41:29;;;;;;;6.00;4.70;;;;;;;13.42;84.00;99409.63;4997964;28;20069;-73
2022/04/27 00:43:54;;;;;;;5.05;4.63;;;;;;;13.47;83.67;99409.44;5008842;28;20446;-73
2022/04/27 00:46:20;;;;;;;6.63;4.10;;;;;;;13.26;84.05;99391.91;5009020;28;20569;-73
2022/04/27 00:48:46;;;;;;;5.43;4.28;;;;;;;13.17;84.19;99400.47;4992206;28;20027;-72
2022/04/27 00:51:17;;;;;;;6.80;4.75;;;;;;;13.43;83.55;99405.63;4984092;28;20038;-73
2022/04/27 00:53:43;;;;;;;8.50;5.47;;;;;;;13.52;83.02;99402.75;4991814;28;20032;-72
2022/04/27 00:56:10;;;;;;;7.97;5.13;;;;;;;13.72;81.56;99402.88;4974248;28;20033;-73
2022/04/27 00:58:36;;;;;;;6.47;4.63;;;;;;;13.93;80.97;99405.47;4992884;28;20034;-72
2022/04/27 01:01:02;;;;;;;5.28;4.60;;;;;;;14.01;80.31;99404.50;4991650;28;20481;-73
2022/04/27 01:03:28;;;;;;;5.10;4.22;;;;;;;13.79;81.70;99396.63;4991369;28;20022;-73
2022/04/27 01:05:56;;;;;;;7.82;5.25;;;;;;;13.77;81.43;99411.06;4990972;28;20081;-73
2022/04/27 01:08:21;;;;;;;5.85;4.90;;;;;;;13.68;81.12;99404.78;4992189;28;20029;-73
2022/04/27 01:10:49;;;;;;;6.43;5.07;;;;;;;13.57;82.24;99393.22;4977563;28;20035;-72
2022/04/27 01:13:16;;;;;;;9.05;5.60;;;;;;;13.43;83.46;99390.78;5013935;28;20435;-72
2022/04/27 01:15:43;;;;;;;7.10;6.28;;;;;;;13.62;83.19;99396.59;5013696;28;20054;-73
2022/04/27 01:18:09;;;;;;;5.75;5.15;;;;;;;13.76;82.72;99396.19;5014786;28;20028;-73
2022/04/27 01:20:44;;;;;;;6.63;5.10;;;;;;;13.83;81.12;99400.38;4996772;28;20061;-73
2022/04/27 01:23:14;;;;;;;6.10;5.50;;;;;;;13.83;80.81;99386.34;5014357;28;20477;-73
2022/04/27 01:25:50;;;;;;;7.80;5.07;;;;;;;13.94;79.70;99389.41;5014348;28;20033;-72
2022/04/27 01:28:21;;;;;;;7.88;5.35;;;;;;;14.01;80.26;99389.63;4989435;28;20116;-72
2022/04/27 01:30:47;;;;;;;6.88;4.70;;;;;;;13.89;80.44;99385.72;4993495;28;20030;-73
2022/04/27 01:33:13;;;;;;;5.28;4.78;;;;;;;14.17;79.41;99390.47;4994681;28;20026;-72
2022/04/27 01:35:40;;;;;;;4.80;4.30;;;;;;;14.41;78.16;99382.19;4994710;28;20358;-73
2022/04/27 01:38:07;;;;;;;10.75;5.85;;;;;;;14.32;78.21;99379.56;4994484;28;20047;-72
2022/04/27 01:40:34;;;;;;;6.18;5.60;;;;;;;14.52;76.95;99374.84;4977102;28;20077;-72
2022/04/27 01:43:00;;;;;;;4.60;4.20;;;;;;;14.67;76.71;99387.28;4991482;28;20030;-73
2022/04/27 01:45:25;;;;;;;5.88;4.00;;;;;;;14.66;76.42;99380.00;4991360;28;20053;-73
2022/04/27 01:47:53;;;;;;;5.78;3.95;;;;;;;14.84;75.17;99383.28;4993039;28;20026;-73
2022/04/27 01:50:19;;;;;;;7.13;4.53;;;;;;;14.86;74.73;99383.72;4993791;28;20053;-72
2022/04/27 01:55:29;;;;;;;6.22;4.07;;;;;;;14.39;75.89;99376.94;4994401;28;20036;-73
2022/04/27 01:57:54;;;;;;;6.88;5.30;;;;;;;14.38;76.05;99377.31;4994016;28;20030;-73
2022/04/27 02:00:21;;;;;;;5.47;4.80;;;;;;;14.32;76.38;99379.56;4993829;28;20029;-72
2022/04/27 02:02:47;;;;;;;5.95;5.40;;;;;;;13.50;79.88;99384.59;4993796;28;20034;-73
2022/04/27 02:05:13;;;;;;;9.27;6.47;;;;;;;13.15;81.79;99369.09;5013096;28;20465;-72
2022/04/27 02:07:38;;;;;;;10.57;6.97;;;;;;;13.05;82.26;99376.84;5013559;28;20057;-72
2022/04/27 02:10:05;;;;;;;7.70;6.15;;;;;;;13.25;82.10;99374.22;5013614;28;20432;-73
2022/04/27 02:12:31;;;;;;;8.93;6.40;;;;;;;13.06;81.97;99364.44;5012327;28;20508;-73
2022/04/27 02:14:57;;;;;;;10.32;7.18;;;;;;;12.83;84.06;99374.53;5006930;28;20026;-72
2022/04/27 02:17:22;;;;;;;10.68;6.97;;;;;;;12.82;84.02;99364.50;4992313;28;20038;-73
2022/04/27 02:19:48;;;;;;;6.97;6.28;;;;;;;13.06;83.32;99369.22;4992790;28;20397;-73
2022/04/27 02:22:13;;;;;;;8.20;6.55;;;;;;;13.42;82.01;99367.50;4993637;28;20078;-73
2022/04/27 02:24:39;;;;;;;11.23;6.68;;;;;;;13.24;81.08;99364.16;4993214;28;20034;-73
2022/04/27 02:27:04;;;;;;;7.07;6.22;;;;;;;12.92;82.87;99364.81;4976167;28;20030;-73
2022/04/27 02:29:30;;;;;;;10.07;6.68;;;;;;;12.90;83.62;99369.13;4993614;28;20100;-73
2022/04/27 02:31:55;;;;;;;8.30;6.88;;;;;;;13.12;82.28;99358.56;4993566;28;20037;-73
2022/04/27 02:34:21;;;;;;;8.82;7.22;;;;;;;13.32;81.04;99362.38;5001390;28;20084;-73
2022/04/27 02:36:47;;;;;;;7.03;5.95;;;;;;;13.63;79.29;99360.88;5012823;28;20406;-73
2022/04/27 02:39:12;;;;;;;6.03;5.45;;;;;;;13.67;79.31;99372.22;5012895;28;20035;-73
2022/04/27 02:41:38;;;;;;;7.10;5.43;;;;;;;13.71;78.53;99364.72;5012238;28;20078;-73
2022/04/27 02:44:04;;;;;;;9.75;5.90;;;;;;;13.50;79.03;99368.53;4988863;28;20025;-73
2022/04/27 02:46:29;;;;;;;8.77;6.32;;;;;;;13.54;78.70;99358.22;5013064;28;20036;-73
2022/04/27 02:51:51;;;;;;;9.23;6.47;;;;;;;13.51;78.66;99358.13;4993454;28;20105;-73
2022/04/27 02:54:23;;;;;;;10.95;7.53;;;;;;;12.72;81.09;99360.16;4992876;28;20034;-73
2022/04/27 02:56:49;;;;;;;8.75;6.63;;;;;;;12.38;82.89;99360.28;4993153;28;20031;-73
2022/04/27 02:59:16;;;;;;;11.90;7.25;;;;;;;12.46;82.62;99361.34;4975554;28;20022;-73
2022/04/27 03:01:42;;;;;;;8.88;6.63;;;;;;;12.53;82.89;99360.75;4975520;28;20030;-73
2022/04/27 03:04:09;;;;;;;8.43;6.88;;;;;;;12.32;83.41;99356.91;4992926;28;20037;-73
2022/04/27 03:06:35;;;;;;;9.45;7.63;;;;;;;11.82;85.28;99350.34;4993213;28;20023;-73
2022/04/27 03:09:01;;;;;;;9.93;8.85;;;;;;;11.54;88.05;99362.19;4992756;28;20030;-73
2022/04/27 03:11:26;;;;;;;12.27;9.85;;;;;;;11.34;88.84;99356.28;4992694;28;20290;-73
2022/04/27 03:13:52;;;;;;;13.43;9.93;;;;;;;11.30;89.74;99369.31;4992852;28;20030;-73
2022/04/27 03:16:17;;;;;;;15.77;9.93;;;;;;;11.11;90.46;99366.19;4992636;28;20026;-73
2022/04/27 03:18:43;;;;;;;14.30;10.18;;;;;;;10.91;91.33;99371.44;5001582;28;20033;-72
2022/04/27 03:21:10;;;;;;;13.40;12.00;;;;;;;10.81;91.95;99373.47;5012223;28;20742;-72
2022/04/27 03:23:35;;;;;;;17.20;12.65;;;;;;;10.75;92.95;99386.03;5008368;28;20053;-72
2022/04/27 03:26:02;;;;;;;20.35;13.07;;;;;;;10.65;93.58;99378.81;4991420;28;20143;-73
2022/04/27 03:28:28;;;;;;;17.17;13.10;;;;;;;10.65;93.66;99376.03;5012107;28;20026;-72
2022/04/27 03:30:54;;;;;;;15.73;12.55;;;;;;;10.67;93.32;99376.50;5011796;28;20617;-72
2022/04/27 03:33:20;;;;;;;14.18;12.05;;;;;;;10.69;93.14;99383.75;5002431;28;20026;-73
2022/04/27 03:35:46;;;;;;;18.65;12.35;;;;;;;10.63;93.32;99378.34;5001138;28;20033;-73
2022/04/27 03:38:13;;;;;;;15.20;12.27;;;;;;;10.60;92.90;99379.03;4992342;28;20125;-73
2022/04/27 03:40:41;;;;;;;14.02;12.20;;;;;;;10.50;93.15;99383.03;4975007;28;20045;-73
2022/04/27 03:43:08;;;;;;;21.73;14.00;;;;;;;10.59;93.71;99393.34;4992333;28;20612;-74
2022/04/27 03:45:34;;;;;;;14.30;12.75;;;;;;;10.55;93.89;99395.19;5010221;28;20048;-73
2022/04/27 03:48:00;;;;;;;17.10;14.23;;;;;;;10.62;93.71;99399.09;4980845;28;20548;-72
2022/04/27 03:50:25;;;;;;;16.95;11.85;;;;;;;10.67;93.17;99404.47;5005861;28;20091;-72
2022/04/27 03:52:51;;;;;;;14.57;11.48;;;;;;;10.74;92.17;99403.13;4997252;28;20504;-72
2022/04/27 03:55:17;;;;;;;14.55;12.25;;;;;;;10.84;91.71;99413.13;4992225;28;20065;-72
2022/04/27 03:57:42;;;;;;;19.20;11.80;;;;;;;10.73;90.96;99407.09;5007721;28;20453;-72
2022/04/27 04:00:09;;;;;;;17.83;10.50;;;;;;;10.80;91.25;99419.41;4990997;28;20081;-73
2022/04/27 04:02:36;;;;;;;11.23;9.48;;;;;;;10.72;90.67;99417.44;5005624;28;20429;-73
2022/04/27 04:05:03;;;;;;;12.75;10.68;;;;;;;10.72;90.97;99413.84;5011752;28;20064;-72
2022/04/27 04:07:29;;;;;;;15.73;11.35;;;;;;;10.79;90.70;99420.56;5011888;28;20444;-72
2022/04/27 04:09:55;;;;;;;14.30;11.18;;;;;;;10.65;91.04;99419.97;5005479;28;20034;-71
2022/04/27 04:12:20;;;;;;;13.70;10.18;;;;;;;10.80;91.09;99424.19;5001392;28;20056;-70
2022/04/27 04:14:46;;;;;;;14.80;11.98;;;;;;;10.76;91.80;99429.63;4992191;28;20105;-70
2022/04/27 04:17:12;;;;;;;14.30;11.65;;;;;;;10.82;91.39;99433.06;5000490;28;20030;-71
2022/04/27 04:19:38;;;;;;;13.98;10.75;;;;;;;10.80;92.08;99433.38;4992269;28;20026;-71
2022/04/27 04:22:05;;;;;;;12.43;11.13;;;;;;;10.85;92.74;99425.94;4998897;28;20037;-71
2022/04/27 04:24:31;;;;;;;17.98;12.70;;;;;;;10.86;92.53;99435.97;4992054;28;20167;-72
2022/04/27 04:29:40;;;;;;;18.13;12.63;;;;;;;10.92;93.29;99438.28;4991733;28;20036;-71
2022/04/27 04:32:06;;;;;;;16.83;11.13;;;;;;;10.84;93.51;99425.13;4990391;28;20029;-71
2022/04/27 04:34:32;;;;;;;15.95;12.50;;;;;;;11.05;93.35;99435.56;4983990;28;20034;-72
2022/04/27 04:36:57;;;;;;;14.50;11.15;;;;;;;11.03;92.53;99432.25;4986329;28;20651;-72
2022/04/27 04:39:23;;;;;;;33.92;12.07;;;;;;;11.27;93.15;99425.19;5002789;28;20040;-71
2022/04/27 04:41:48;;;;;;;12.73;10.98;;;;;;;11.41;93.10;99439.75;4998390;28;20062;-72
2022/04/27 04:44:14;;;;;;;14.00;10.60;;;;;;;11.57;92.29;99428.72;4999471;28;20109;-73
2022/04/27 04:46:40;;;;;;;22.25;10.93;;;;;;;11.66;92.00;99437.88;4996772;28;20041;-75
2022/04/27 04:49:06;;;;;;;11.57;9.38;;;;;;;11.98;91.32;99445.00;4999631;28;20026;-73
2022/04/27 04:51:32;;;;;;;25.25;10.32;;;;;;;12.16;89.67;99443.69;4999864;28;20022;-72
2022/04/27 04:53:57;;;;;;;11.93;10.13;;;;;;;12.39;89.10;99443.28;5002283;28;20022;-72
2022/04/27 04:56:23;;;;;;;17.58;12.20;;;;;;;12.32;88.71;99446.66;4995119;28;20026;-73
2022/04/27 04:58:48;;;;;;;10.82;9.30;;;;;;;12.20;89.18;99455.88;5007737;28;20033;-73
2022/04/27 05:01:14;;;;;;;15.82;10.18;;;;;;;12.29;90.23;99449.31;5002203;28;20124;-73
2022/04/27 05:03:40;;;;;;;18.48;10.00;;;;;;;12.45;90.06;99455.09;4991957;28;20022;-73
2022/04/27 05:06:06;;;;;;;17.45;9.32;;;;;;;12.63;88.85;99450.91;4998928;28;20093;-73
2022/04/27 05:08:32;;;;;;;15.65;9.13;;;;;;;12.70;88.37;99457.91;5006429;28;20112;-73
2022/04/27 05:10:57;;;;;;;13.10;9.20;;;;;;;12.68;89.53;99452.66;5008435;28;20030;-73
2022/04/27 05:13:24;;;;;;;13.50;9.68;;;;;;;12.98;88.20;99448.81;4996100;28;20043;-76
2022/04/27 05:15:50;;;;;;;17.58;9.45;;;;;;;12.99;87.30;99447.63;4981161;28;20045;-72
2022/04/27 05:18:19;;;;;;;17.38;15.45;;;;;;;12.95;88.33;99453.13;4995403;28;20512;-73
2022/04/27 05:20:45;;;;;;;27.00;22.30;;;;;;;12.99;88.21;99461.69;4990867;28;20022;-72
2022/04/27 05:23:14;;;;;;;13.20;11.77;;;;;;;13.05;88.59;99455.47;4987171;28;20034;-71
2022/04/27 05:25:40;;;;;;;11.40;8.18;;;;;;;13.16;87.79;99455.00;4994279;28;20401;-74
2022/04/27 05:28:06;;;;;;;10.82;8.65;;;;;;;13.41;86.32;99463.38;4994856;28;20370;-75
2022/04/27 05:33:23;;;;;;;14.27;9.15;;;;;;;13.40;86.88;99464.56;5014134;28;20044;-74
2022/04/27 05:35:49;;;;;;;16.95;9.65;;;;;;;13.58;86.62;99471.53;5014012;28;20032;-74
2022/04/27 05:38:14;;;;;;;13.60;8.80;;;;;;;13.51;85.50;99460.09;5012552;28;20042;-75
2022/04/27 05:40:43;;;;;;;13.18;8.82;;;;;;;13.46;86.37;99460.34;5006940;28;20379;-77
2022/04/27 05:43:10;;;;;;;12.20;7.80;;;;;;;13.69;84.91;99462.63;4997587;28;20469;-72
2022/04/27 05:45:36;;;;;;;10.40;9.00;;;;;;;13.88;86.65;99462.78;5005001;28;20113;-74
2022/04/27 05:48:02;;;;;;;13.38;8.68;;;;;;;14.10;86.52;99460.56;5000204;28;20470;-72
2022/04/27 05:50:28;;;;;;;14.60;9.35;;;;;;;14.12;86.42;99460.22;4994225;28;20385;-77
2022/04/27 05:52:58;;;;;;;13.90;7.93;;;;;;;14.40;85.58;99460.19;4994001;28;20061;-73
2022/04/27 05:55:24;;;;;;;10.20;7.28;;;;;;;14.59;83.10;99464.25;4994078;28;20030;-75
2022/04/27 05:57:50;;;;;;;10.10;8.02;;;;;;;14.50;83.82;99455.19;4982815;28;20401;-74
2022/04/27 06:00:17;;;;;;;10.68;7.95;;;;;;;14.64;83.88;99454.72;5013774;28;20032;-74
2022/04/27 06:02:44;;;;;;;12.20;7.95;;;;;;;14.63;83.18;99456.75;4992813;28;20053;-77
2022/04/27 06:05:10;;;;;;;11.98;8.10;;;;;;;14.68;82.63;99462.09;4980138;28;20475;-75
2022/04/27 06:07:37;;;;;;;9.88;6.75;;;;;;;14.80;81.89;99460.41;5011026;28;20029;-75
2022/04/27 06:10:09;;;;;;;19.42;7.93;;;;;;;15.06;82.89;99459.00;5007409;28;20084;-74
2022/04/27 06:12:43;;;;;;;10.75;7.95;;;;;;;15.16;80.07;99466.91;4976831;28;20105;-75
2022/04/27 06:15:13;;;;;;;11.35;7.18;;;;;;;15.18;79.71;99470.16;5004929;28;20664;-75
2022/04/27 06:17:38;;;;;;;11.50;7.77;;;;;;;15.43;80.84;99467.09;5003264;28;20018;-77
2022/04/27 06:20:04;;;;;;;6.97;6.28;;;;;;;15.57;78.07;99466.59;4994074;28;20018;-74
2022/04/27 06:22:30;;;;;;;9.32;6.40;;;;;;;15.52;78.42;99469.72;5000603;28;20027;-74
2022/04/27 06:24:56;;;;;;;9.50;6.35;;;;;;;15.52;77.80;99464.88;5004004;28;20388;-75
2022/04/27 06:27:21;;;;;;;12.55;6.30;;;;;;;15.75;77.13;99477.44;4993310;28;20022;-73
2022/04/27 06:29:47;;;;;;;7.47;5.38;;;;;;;15.76;76.07;99471.44;4984344;28;20081;-74
2022/04/27 06:32:12;;;;;;;8.57;5.25;;;;;;;16.05;75.12;99471.25;4993558;28;20037;-73
2022/04/27 06:34:38;;;;;;;13.00;5.15;;;;;;;16.31;74.70;99472.53;5004376;28;20034;-73
2022/04/27 06:37:03;;;;;;;9.77;5.80;;;;;;;16.04;74.99;99481.69;4999601;28;20038;-73
2022/04/27 06:39:29;;;;;;;8.50;5.32;;;;;;;15.91;74.32;99481.06;4993157;28;20451;-74
2022/04/27 06:41:54;;;;;;;10.18;5.07;;;;;;;16.23;73.29;99477.25;4992859;28;20113;-74
2022/04/27 06:44:20;;;;;;;10.73;4.82;;;;;;;16.35;72.00;99470.59;5002722;28;20110;-73
2022/04/27 06:46:45;;;;;;;5.47;4.90;;;;;;;16.45;71.77;99475.63;5004041;28;20029;-73
2022/04/27 06:49:11;;;;;;;6.68;4.50;;;;;;;16.65;70.72;99470.78;4993148;28;20089;-73
2022/04/27 06:51:36;;;;;;;8.27;4.32;;;;;;;16.62;69.59;99471.50;4993581;28;20393;-73
2022/04/27 06:54:03;;;;;;;6.85;3.95;;;;;;;16.65;68.63;99472.75;4994053;28;20072;-74
2022/04/27 06:56:35;;;;;;;9.65;5.43;;;;;;;17.04;69.63;99469.81;5010035;28;20029;-73
2022/04/27 06:59:11;;;;;;;6.00;4.70;;;;;;;17.21;67.58;99468.47;5003045;28;20022;-76
2022/04/27 07:01:36;;;;;;;12.45;5.38;;;;;;;17.06;66.88;99472.25;4980311;28;20018;-73
2022/04/27 07:04:08;;;;;;;9.63;5.78;;;;;;;16.90;69.74;99470.38;4994127;28;20405;-73
2022/04/27 07:06:34;;;;;;;6.45;5.30;;;;;;;16.78;67.46;99473.41;4999985;28;20512;-73
2022/04/27 07:09:00;;;;;;;7.78;5.18;;;;;;;16.61;66.32;99478.34;5005918;28;20026;-72
2022/04/27 07:11:25;;;;;;;10.20;3.80;;;;;;;16.55;65.81;99475.00;5001823;28;20025;-73
2022/04/27 07:13:51;;;;;;;7.80;4.80;;;;;;;17.07;66.82;99469.03;4987248;28;20511;-73
2022/04/27 07:16:17;;;;;;;4.13;3.72;;;;;;;17.21;65.06;99474.09;5010352;28;20104;-72
2022/04/27 07:18:42;;;;;;;8.32;4.80;;;;;;;17.44;63.97;99473.22;5002080;28;20073;-73
2022/04/27 07:21:08;;;;;;;11.60;4.65;;;;;;;17.53;63.74;99467.28;5001364;28;20014;-74
2022/04/27 07:23:34;;;;;;;6.03;5.05;;;;;;;17.78;63.05;99472.47;5006920;28;20153;-73
2022/04/27 07:26:00;;;;;;;11.82;4.20;;;;;;;17.79;63.07;99471.25;4997656;28;20029;-73
2022/04/27 07:28:25;;;;;;;10.40;5.25;;;;;;;17.91;64.40;99467.38;4982557;28;20125;-73
2022/04/27 07:30:51;;;;;;;12.27;4.45;;;;;;;18.13;62.22;99470.50;4993640;28;20301;-73
2022/04/27 07:33:16;;;;;;;5.88;3.80;;;;;;;18.54;61.13;99467.69;5005101;28;20030;-73
2022/04/27 07:35:42;;;;;;;10.73;4.05;;;;;;;18.97;59.34;99472.94;5009701;28;20022;-73
2022/04/27 07:38:07;;;;;;;10.23;4.47;;;;;;;19.24;58.51;99467.06;5010196;28;20153;-73
2022/04/27 07:40:33;;;;;;;7.88;3.95;;;;;;;19.41;57.73;99471.25;5011755;28;20018;-73
2022/04/27 07:42:59;;;;;;;6.88;4.07;;;;;;;19.47;58.39;99471.69;4986233;28;20073;-74
2022/04/27 07:45:25;;;;;;;5.25;4.15;;;;;;;19.40;59.70;99466.78;4999020;28;20022;-73
2022/04/27 07:47:51;;;;;;;54.90;6.88;;;;;;;18.69;59.60;99462.16;4993501;28;20038;-74
2022/04/27 07:50:18;;;;;;;21.35;4.50;;;;;;;19.21;59.28;99467.88;4974704;28;20180;-73
2022/04/27 07:52:44;;;;;;;9.93;4.53;;;;;;;19.41;59.46;99461.94;4982791;28;20109;-74
2022/04/27 07:55:11;;;;;;;13.98;5.75;;;;;;;19.14;60.02;99465.00;4994009;28;20121;-74
2022/04/27 07:57:37;;;;;;;10.88;4.82;;;;;;;18.92;60.24;99465.59;5011807;28;20392;-74
2022/04/27 08:00:09;;;;;;;6.97;4.70;;;;;;;19.07;59.91;99474.28;4988714;28;20444;-74
2022/04/27 08:02:36;;;;;;;9.15;4.57;;;;;;;19.32;58.53;99465.13;4995301;28;20091;-75
2022/04/27 08:05:03;;;;;;;7.75;4.28;;;;;;;19.80;56.89;99464.16;5002608;28;20037;-74
2022/04/27 08:07:46;;;;;;;11.02;4.95;;;;;;;20.25;56.24;99466.78;4986013;28;20030;-73
2022/04/27 08:10:12;;;;;;;7.40;4.93;;;;;;;20.57;55.49;99474.56;4986576;28;20030;-75
2022/04/27 08:12:39;;;;;;;9.43;4.57;;;;;;;20.60;53.80;99465.22;4978554;28;20037;-75
2022/04/27 08:15:06;;;;;;;9.68;6.03;;;;;;;20.41;52.31;99465.63;4991890;28;20038;-75
2022/04/27 08:17:32;;;;;;;8.32;4.65;;;;;;;19.28;55.50;99467.09;4996635;28;20412;-77
2022/04/27 08:22:44;;;;;;;21.98;5.63;;;;;;;19.48;53.76;99471.28;4965689;28;20539;-73
2022/04/27 08:25:09;;;;;;;10.70;5.68;;;;;;;19.48;55.18;99467.63;5008522;28;20039;-74
2022/04/27 08:27:35;;;;;;;5.82;4.93;;;;;;;19.71;54.92;99463.72;5006146;28;20040;-73
2022/04/27 08:30:00;;;;;;;10.18;4.85;;;;;;;20.18;54.21;99455.41;4999603;28;20485;-76
2022/04/27 08:32:26;;;;;;;7.93;4.15;;;;;;;20.66;54.23;99453.47;4996015;28;20044;-73
2022/04/27 08:34:52;;;;;;;6.32;4.40;;;;;;;20.66;53.18;99459.97;4997669;28;20087;-72
2022/04/27 08:37:17;;;;;;;8.57;4.38;;;;;;;20.88;53.15;99452.31;4980478;28;20121;-74
2022/04/27 08:39:43;;;;;;;4.22;3.85;;;;;;;20.71;54.03;99442.53;5001327;28;20474;-73
2022/04/27 08:42:09;;;;;;;7.95;3.67;;;;;;;21.05;52.88;99444.16;4998863;28;20045;-73
2022/04/27 08:44:38;;;;;;;7.75;3.95;;;;;;;21.36;52.82;99443.69;4997067;28;20109;-74
2022/04/27 08:47:07;;;;;;;6.43;4.70;;;;;;;20.84;52.14;99442.16;5003512;28;20033;-73
2022/04/27 08:49:34;;;;;;;7.23;4.10;;;;;;;20.17;54.50;99437.56;5008588;28;20029;-73
2022/04/27 08:52:03;;;;;;;12.30;5.25;;;;;;;20.57;54.95;99434.78;5014675;28;21005;-71
2022/04/27 08:54:29;;;;;;;7.85;4.68;;;;;;;19.90;55.25;99432.19;5009287;28;20087;-73
2022/04/27 08:56:55;;;;;;;165.27;16.60;;;;;;;20.19;54.19;99437.16;4994054;28;20515;-71
2022/04/27 08:59:20;;;;;;;146.13;10.50;;;;;;;20.50;55.73;99439.66;4999096;28;20034;-72
2022/04/27 09:01:46;;;;;;;16.90;5.68;;;;;;;21.04;51.21;99425.47;4994846;28;20121;-73
2022/04/27 09:04:15;;;;;;;377.95;33.70;;;;;;;21.37;49.57;99429.09;4999739;28;20026;-73
2022/04/27 09:06:41;;;;;;;17.65;5.07;;;;;;;21.76;49.36;99415.16;4998155;28;20512;-73
2022/04/27 09:09:13;;;;;;;15.90;5.00;;;;;;;22.10;49.02;99418.22;5005997;28;20105;-70
2022/04/27 09:11:39;;;;;;;15.85;4.70;;;;;;;22.29;46.62;99416.88;4988924;28;20108;-73
2022/04/27 09:14:07;;;;;;;9.80;3.75;;;;;;;22.23;45.87;99415.72;4984994;28;20121;-73
2022/04/27 09:22:08;;;;;;;9.00;4.43;;;;;;;22.17;44.04;99408.84;5000500;28;20045;-74
2022/04/27 09:24:51;;;;;;;20.30;4.53;;;;;;;22.42;44.52;99414.38;5006182;28;20026;-74
2022/04/27 09:27:24;;;;;;;5.32;3.90;;;;;;;22.53;43.76;99414.31;4977088;28;20061;-74
2022/04/27 09:30:01;;;;;;;8.63;3.67;;;;;;;22.52;44.00;99414.75;4999511;28;20034;-72
2022/04/27 09:32:27;;;;;;;14.65;4.88;;;;;;;22.62;44.86;99413.03;4996899;28;20029;-74
2022/04/27 09:34:54;;;;;;;11.43;4.40;;;;;;;22.62;44.22;99407.34;4981020;28;20033;-72
2022/04/27 09:37:21;;;;;;;16.65;4.45;;;;;;;22.56;45.07;99404.13;4992733;28;20050;-73
2022/04/27 09:40:06;;;;;;;10.32;4.07;;;;;;;22.68;44.10;99395.06;4993218;28;20033;-74
2022/04/27 09:42:37;;;;;;;9.10;5.05;;;;;;;22.88;46.73;99397.34;4981563;28;20053;-72
2022/04/27 09:45:24;;;;;;;13.32;6.90;;;;;;;23.17;45.21;99405.63;5002105;28;20026;-73
2022/04/27 09:47:53;;;;;;;13.77;4.80;;;;;;;23.46;45.27;99393.91;4997725;28;20022;-74
2022/04/27 09:50:19;;;;;;;22.35;5.30;;;;;;;23.47;43.80;99400.44;5013380;28;20022;-74
2022/04/27 09:52:46;;;;;;;10.60;5.78;;;;;;;23.14;43.74;99398.69;4999853;28;20030;-73
2022/04/27 09:55:12;;;;;;;7.75;5.55;;;;;;;23.19;43.01;99405.19;5001029;28;20076;-74
2022/04/27 09:57:40;;;;;;;10.23;5.60;;;;;;;22.86;43.54;99394.91;4997437;28;20060;-73
2022/04/27 10:00:07;;;;;;;10.98;4.47;;;;;;;23.08;44.07;99397.56;4992747;28;20076;-73
2022/04/27 10:02:37;;;;;;;11.80;5.32;;;;;;;22.90;44.41;99391.22;4976564;28;20405;-73
2022/04/27 10:05:02;;;;;;;14.60;5.35;;;;;;;23.02;45.75;99379.28;4977047;28;20053;-72
2022/04/27 10:07:32;;;;;;;14.25;6.60;;;;;;;23.22;44.28;99385.16;4991089;28;20345;-73
2022/04/27 10:09:58;;;;;;;11.32;5.85;;;;;;;23.04;43.79;99381.72;5011451;28;20472;-73
2022/04/27 10:12:24;;;;;;;8.80;5.90;;;;;;;23.26;44.17;99379.44;4994190;28;20028;-74
2022/04/27 10:14:50;;;;;;;12.38;5.70;;;;;;;23.41;43.92;99382.97;5003861;28;20018;-73
2022/04/27 10:17:16;;;;;;;12.50;5.90;;;;;;;23.73;44.26;99376.06;4991455;28;20018;-73
2022/04/27 10:19:49;;;;;;;9.55;4.70;;;;;;;23.87;43.88;99375.03;4991375;28;20030;-73
2022/04/27 10:22:32;;;;;;;11.13;5.15;;;;;;;23.98;44.97;99367.13;4974992;28;20026;-73
2022/04/27 10:25:08;;;;;;;10.02;5.13;;;;;;;24.22;42.44;99378.66;4984040;28;20033;-73
2022/04/27 10:27:39;;;;;;;10.00;5.13;;;;;;;24.31;43.74;99369.53;5011015;28;20022;-73
2022/04/27 10:30:10;;;;;;;11.77;6.20;;;;;;;24.31;43.59;99372.38;4998598;28;20504;-74
2022/04/27 10:32:43;;;;;;;8.30;5.00;;;;;;;24.59;42.32;99358.88;4991598;28;20046;-73
2022/04/27 10:35:12;;;;;;;10.98;5.28;;;;;;;24.56;42.06;99367.53;4992338;28;20045;-75
2022/04/27 10:37:43;;;;;;;9.27;5.10;;;;;;;24.54;42.34;99360.19;4991602;28;20054;-73
2022/04/27 10:40:30;;;;;;;19.75;5.97;;;;;;;24.40;40.90;99360.44;4994216;28;20026;-72
2022/04/27 10:43:07;;;;;;;18.92;4.85;;;;;;;24.38;42.27;99362.91;5002280;28;20023;-70
2022/04/27 10:45:37;;;;;;;9.98;4.55;;;;;;;24.31;42.25;99363.03;4985296;28;20429;-72
2022/04/27 10:48:06;;;;;;;;;;;;;;;24.28;43.01;99361.84;4987306;28;20026;-71
2022/04/27 10:50:36;;;;;;;13.98;5.18;;;;;;;24.20;42.32;99361.13;5004193;28;19921;-74
2022/04/27 10:53:22;;;;;;;13.38;4.47;;;;;;;24.66;41.89;99352.25;5008909;28;20069;-73
2022/04/27 10:55:51;;;;;;;9.75;5.20;;;;;;;24.66;41.24;99352.25;5003903;28;20069;-72
2022/04/27 10:58:17;;;;;;;17.70;4.13;;;;;;;24.70;41.08;99355.84;5011322;28;20026;-71
2022/04/27 11:01:03;;;;;;;5.97;4.65;;;;;;;24.46;41.37;99355.81;4985603;28;20045;-73
2022/04/27 11:03:31;;;;;;;9.80;4.32;;;;;;;24.64;41.73;99352.66;4992874;28;20063;-72
2022/04/27 11:05:59;;;;;;;9.43;4.68;;;;;;;24.78;42.40;99339.38;5009623;28;20069;-73
2022/04/27 11:09:09;;;;;;;8.77;4.35;;;;;;;24.85;40.20;99345.00;4998427;28;20034;-72
2022/04/27 11:11:52;;;;;;;11.68;3.97;;;;;;;24.79;41.43;99336.09;4993110;28;20088;-72
2022/04/27 11:14:26;;;;;;;10.90;5.05;;;;;;;24.89;40.62;99333.50;5007113;28;20034;-72
2022/04/27 11:16:52;;;;;;;8.02;3.95;;;;;;;25.11;41.12;99331.00;4996890;28;20037;-72
2022/04/27 11:19:18;;;;;;;13.07;4.40;;;;;;;25.01;40.27;99329.16;4987732;28;20048;-72
2022/04/27 11:21:46;;;;;;;8.48;4.18;;;;;;;24.86;40.64;99325.75;4992449;28;20026;-72
2022/04/27 11:24:13;;;;;;;10.82;5.47;;;;;;;24.89;40.48;99327.78;4998261;28;20178;-72
2022/04/27 11:26:47;;;;;;;9.70;4.78;;;;;;;24.87;42.60;99321.69;4998799;28;20030;-72
2022/04/27 11:29:14;;;;;;;9.98;4.80;;;;;;;24.85;41.37;99313.53;4987046;28;20053;-73
2022/04/27 11:31:43;;;;;;;9.77;4.50;;;;;;;24.99;41.15;99303.88;4994956;28;20453;-72
2022/04/27 11:34:26;;;;;;;8.13;4.40;;;;;;;24.94;41.84;99312.94;5000825;28;20029;-72
2022/04/27 11:36:54;;;;;;;8.68;4.05;;;;;;;24.90;42.22;99309.34;4998102;28;20460;-72
2022/04/27 11:39:24;;;;;;;6.47;4.32;;;;;;;25.06;42.23;99298.00;4997155;28;20041;-72
2022/04/27 11:42:00;;;;;;;6.43;3.65;;;;;;;25.00;40.53;99311.22;5004680;28;20064;-72
2022/04/27 11:44:27;;;;;;;13.73;4.65;;;;;;;24.53;41.39;99304.28;4996109;28;20412;-72
2022/04/27 11:46:53;;;;;;;11.23;5.18;;;;;;;24.47;42.42;99308.84;4996473;28;20397;-71
2022/04/27 11:49:18;;;;;;;13.93;4.75;;;;;;;24.61;41.51;99295.53;4997808;28;20045;-71